Kezdőlap
METAR-TAF:

METAR-TAF

Repülőterek :

Oklahoma City, Oklahoma, Amerikai Egyesült Államok

földrajzi szélesség: 35-32-28N, földrajzi hosszúság: 097-38-48W, magasság: 396 m

Jelenlegi meteorológiai megfigyelések

A jelentés 19 perccel ezelõtt készült, 11:53 UTC
Dél-délnyugati szél 11 kt
Hőmérséklet 24°C
Páratartalom 78%
Légköri nyomás 1017 hPa
Látótávolság: 16.1 km
Kevés felhő 9500 lábon

METAR: KPWA 221153Z 20011KT 10SM FEW095 24/20 A3004 RMK AO2 SLP155 T02440200 10267 20239 55002

Idő: 07:12 (12:12 UTC)


TAF: hiányzik

Meteorológiai megfigyelések és előrejelzések több, mint 4000 repülőtéren (METAR és TAF jelentéseket).

A térképen piros és sárga pontok jelzik az elérhető meteorológiai állomásokat.

Mozgassa az egeret a pont fölött, hogy megjelenjen az állomás neve.

Azután kattintson az időjárási megfigyelések és előrejelzések megtekintéséhez.

A térkép megváltoztatása: kattintson a fekete keresztel jelölt zöld gombra ráközelítéshez, a vonallal jelölt zöld gombra távolításhoz, vagy a zöld nyilakra a szomszédos térképek eléréséhez.


METAR-TAF: